createdAt,value
2022-08-27T00:09:12.015Z,99406.22
2022-08-27T00:10:15.965Z,99407.52
2022-08-27T00:19:49.197Z,99395.00
2022-08-27T00:29:23.567Z,99400.68
2022-08-27T00:38:53.223Z,99397.65
2022-08-27T00:48:26.741Z,99404.80
2022-08-27T00:58:01.169Z,99407.08
2022-08-27T01:07:35.456Z,99395.84
2022-08-27T01:17:11.419Z,99388.84
2022-08-27T01:18:13.896Z,99397.93
2022-08-27T01:27:49.219Z,99386.70
2022-08-27T01:37:23.799Z,99393.33
2022-08-27T01:46:58.107Z,99394.64
2022-08-27T01:56:31.157Z,99377.70
2022-08-27T02:06:05.383Z,99368.55
2022-08-27T02:15:39.481Z,99370.59
2022-08-27T02:25:13.487Z,99369.28
2022-08-27T02:34:47.768Z,99371.24
2022-08-27T02:44:21.847Z,99374.84
2022-08-27T02:53:54.269Z,99370.08
2022-08-27T03:03:28.282Z,99367.64
2022-08-27T03:13:03.172Z,99370.21
2022-08-27T03:22:39.092Z,99373.97
2022-08-27T03:32:11.838Z,99374.38
2022-08-27T03:41:55.107Z,99370.36
2022-08-27T03:51:19.452Z,99370.71
2022-08-27T04:00:54.044Z,99372.25
2022-08-27T04:10:31.878Z,99370.66
2022-08-27T04:20:13.516Z,99373.73
2022-08-27T04:29:38.470Z,99376.76
2022-08-27T04:39:11.566Z,99385.23
2022-08-27T04:48:47.412Z,99393.40
2022-08-27T04:58:20.086Z,99388.93
2022-08-27T05:07:54.947Z,99394.13
2022-08-27T05:17:29.484Z,99408.55
2022-08-27T05:27:05.930Z,99404.05
2022-08-27T05:36:39.324Z,99394.20
2022-08-27T05:46:16.108Z,99401.44
2022-08-27T05:55:49.430Z,99407.16
2022-08-27T06:05:24.360Z,99410.42
2022-08-27T06:14:58.898Z,99415.37
2022-08-27T06:24:33.755Z,99420.30
2022-08-27T06:34:08.599Z,99419.88
2022-08-27T06:43:43.041Z,99429.02
2022-08-27T06:53:17.750Z,99422.38
2022-08-27T07:02:52.890Z,99430.08
2022-08-27T07:12:30.594Z,99436.39
2022-08-27T07:22:02.706Z,99441.67
2022-08-27T07:23:08.369Z,99440.29
2022-08-27T07:24:08.828Z,99439.95
2022-08-27T07:25:11.215Z,99438.91
2022-08-27T07:26:13.706Z,99437.17
2022-08-27T07:27:18.094Z,99436.92
2022-08-27T07:28:20.425Z,99438.07
2022-08-27T07:29:22.934Z,99439.58
2022-08-27T07:30:25.510Z,99440.13
2022-08-27T07:31:27.981Z,99439.34
2022-08-27T07:32:31.259Z,99441.58
2022-08-27T07:33:32.954Z,99445.38
2022-08-27T07:34:35.533Z,99443.92
2022-08-27T07:35:37.998Z,99448.38
2022-08-27T07:36:42.117Z,99450.43
2022-08-27T07:37:46.107Z,99447.38
2022-08-27T07:47:16.405Z,99462.16
2022-08-27T07:48:18.932Z,99456.98
2022-08-27T07:49:21.461Z,99462.96
2022-08-27T07:50:23.950Z,99468.98
2022-08-27T07:51:28.125Z,99463.07
2022-08-27T07:52:32.100Z,99465.84
2022-08-27T07:53:34.499Z,99461.86
2022-08-27T07:54:38.579Z,99461.98
2022-08-27T07:55:41.033Z,99461.73
2022-08-27T07:56:44.368Z,99463.56
2022-08-27T07:57:45.964Z,99459.81
2022-08-27T07:58:48.457Z,99468.08
2022-08-27T07:59:50.952Z,99459.80
2022-08-27T08:00:53.441Z,99464.76
2022-08-27T08:01:56.423Z,99468.95
2022-08-27T08:03:00.282Z,99473.89
2022-08-27T08:04:02.625Z,99469.20
2022-08-27T08:05:05.126Z,99465.11
2022-08-27T08:06:07.607Z,99467.53
2022-08-27T08:07:10.041Z,99468.55
2022-08-27T08:08:12.715Z,99474.26
2022-08-27T08:09:16.083Z,99470.84
2022-08-27T08:10:18.430Z,99468.80
2022-08-27T08:11:22.548Z,99470.08
2022-08-27T08:12:26.450Z,99472.05
2022-08-27T08:13:29.085Z,99471.77
2022-08-27T08:14:31.471Z,99474.19
2022-08-27T08:15:33.956Z,99469.92
2022-08-27T08:16:39.103Z,99474.61
2022-08-27T08:17:41.287Z,99471.97
2022-08-27T08:18:43.794Z,99475.72
2022-08-27T08:19:57.307Z,99478.67
2022-08-27T08:20:57.918Z,99475.84
2022-08-27T08:21:56.545Z,99479.00
2022-08-27T08:22:55.343Z,99476.11
2022-08-27T08:23:57.854Z,99479.84
2022-08-27T08:25:00.188Z,99479.69
2022-08-27T08:26:02.694Z,99481.91
2022-08-27T08:27:07.588Z,99482.67
2022-08-27T08:28:09.369Z,99483.70
2022-08-27T08:29:12.269Z,99482.52
2022-08-27T08:30:15.738Z,99487.97
2022-08-27T08:31:18.186Z,99485.06
2022-08-27T08:32:20.682Z,99482.51
2022-08-27T08:33:24.799Z,99485.06
2022-08-27T08:34:27.251Z,99486.70
2022-08-27T08:35:33.196Z,99483.13
2022-08-27T08:36:32.112Z,99484.20
2022-08-27T08:37:34.596Z,99482.41
2022-08-27T08:38:37.113Z,99486.63
2022-08-27T08:39:39.556Z,99483.78
2022-08-27T08:40:42.105Z,99483.97
2022-08-27T08:41:44.582Z,99487.98
2022-08-27T08:42:50.760Z,99485.66
2022-08-27T08:43:52.071Z,99482.61
2022-08-27T08:44:56.025Z,99485.02
2022-08-27T08:45:58.435Z,99486.06
2022-08-27T08:47:00.964Z,99485.97
2022-08-27T08:48:03.555Z,99488.63
2022-08-27T08:57:37.456Z,99489.36
2022-08-27T08:58:41.429Z,99489.91
2022-08-27T08:59:43.840Z,99487.46
2022-08-27T09:00:47.958Z,99493.08
2022-08-27T09:01:50.393Z,99496.45
2022-08-27T09:02:53.009Z,99492.83
2022-08-27T09:03:55.475Z,99491.17
2022-08-27T09:04:59.357Z,99491.89
2022-08-27T09:06:01.817Z,99494.22
2022-08-27T09:07:04.190Z,99490.50
2022-08-27T09:08:28.864Z,99492.77
2022-08-27T09:09:10.273Z,99494.05
2022-08-27T09:10:12.626Z,99494.36
2022-08-27T09:11:16.775Z,99490.36
2022-08-27T09:12:19.081Z,99491.58
2022-08-27T09:13:23.207Z,99495.29
2022-08-27T09:14:27.222Z,99497.70
2022-08-27T09:15:31.248Z,99496.47
2022-08-27T09:16:33.602Z,99495.65
2022-08-27T09:17:36.001Z,99497.30
2022-08-27T09:18:38.474Z,99500.28
2022-08-27T09:19:42.591Z,99502.78
2022-08-27T09:20:46.509Z,99499.97
2022-08-27T09:21:48.906Z,99499.75
2022-08-27T09:22:51.377Z,99500.99
2022-08-27T09:23:53.906Z,99502.55
2022-08-27T09:24:56.346Z,99495.98
2022-08-27T09:25:58.886Z,99496.51
2022-08-27T09:27:03.060Z,99496.47
2022-08-27T09:28:06.879Z,99496.76
2022-08-27T09:29:10.339Z,99492.70
2022-08-27T09:30:13.826Z,99496.40
2022-08-27T09:31:16.169Z,99497.34
2022-08-27T09:32:18.743Z,99495.91
2022-08-27T09:33:21.221Z,99498.85
2022-08-27T09:34:23.646Z,99495.58
2022-08-27T09:35:25.866Z,99500.05
2022-08-27T09:36:28.396Z,99499.13
2022-08-27T09:37:33.801Z,99497.67
2022-08-27T09:38:33.326Z,99498.48
2022-08-27T09:39:35.857Z,99496.03
2022-08-27T09:40:38.421Z,99501.63
2022-08-27T09:41:40.878Z,99499.13
2022-08-27T09:42:46.017Z,99500.11
2022-08-27T09:43:47.341Z,99499.70
2022-08-27T09:44:53.601Z,99498.08
2022-08-27T09:45:53.931Z,99501.69
2022-08-27T09:46:57.781Z,99503.94
2022-08-27T09:48:00.141Z,99503.85
2022-08-27T09:49:05.196Z,99502.69
2022-08-27T09:50:07.575Z,99503.55
2022-08-27T09:51:09.899Z,99504.68
2022-08-27T09:52:12.463Z,99500.58
2022-08-27T09:53:14.910Z,99504.42
2022-08-27T09:54:17.365Z,99500.58
2022-08-27T09:55:19.869Z,99499.14
2022-08-27T09:56:22.394Z,99499.39
2022-08-27T09:57:26.463Z,99498.27
2022-08-27T09:58:29.019Z,99493.76
2022-08-27T09:59:31.501Z,99496.27
2022-08-27T10:00:33.954Z,99499.55
2022-08-27T10:01:36.525Z,99494.98
2022-08-27T10:02:38.947Z,99494.58
2022-08-27T10:03:41.467Z,99488.73
2022-08-27T10:04:50.082Z,99487.30
2022-08-27T10:05:46.413Z,99490.29
2022-08-27T10:06:50.530Z,99488.91
2022-08-27T10:07:52.871Z,99492.19
2022-08-27T10:08:55.367Z,99493.64
2022-08-27T10:09:57.878Z,99495.71
2022-08-27T10:11:00.416Z,99496.72
2022-08-27T10:12:02.890Z,99496.47
2022-08-27T10:13:09.169Z,99494.40
2022-08-27T10:14:07.915Z,99495.41
2022-08-27T10:15:10.394Z,99488.94
2022-08-27T10:16:13.023Z,99482.23
2022-08-27T10:17:15.306Z,99481.80
2022-08-27T10:18:17.775Z,99481.62
2022-08-27T10:19:20.345Z,99480.66
2022-08-27T10:20:29.647Z,99484.15
2022-08-27T10:21:25.612Z,99488.28
2022-08-27T10:22:27.861Z,99486.28
2022-08-27T10:23:30.359Z,99486.80
2022-08-27T10:24:32.997Z,99484.39
2022-08-27T10:25:36.484Z,99487.67
2022-08-27T10:26:38.916Z,99483.30
2022-08-27T10:27:42.398Z,99481.75
2022-08-27T10:28:44.810Z,99483.30
2022-08-27T10:29:47.306Z,99486.48
2022-08-27T10:30:49.826Z,99479.13
2022-08-27T10:31:52.488Z,99481.17
2022-08-27T10:32:55.171Z,99478.53
2022-08-27T10:33:57.215Z,99484.44
2022-08-27T10:34:59.736Z,99480.34
2022-08-27T10:36:02.266Z,99481.53
2022-08-27T10:37:07.359Z,99489.88
2022-08-27T10:38:08.171Z,99486.17
2022-08-27T10:39:10.606Z,99484.83
2022-08-27T10:40:14.188Z,99489.71
2022-08-27T10:41:16.321Z,99483.97
2022-08-27T10:42:19.829Z,99492.20
2022-08-27T10:43:22.297Z,99489.53
2022-08-27T10:44:24.661Z,99486.53
2022-08-27T10:45:31.602Z,99489.10
2022-08-27T10:46:34.832Z,99491.41
2022-08-27T10:47:37.200Z,99485.51
2022-08-27T10:48:41.298Z,99493.13
2022-08-27T10:49:46.146Z,99489.00
2022-08-27T10:50:50.111Z,99484.64
2022-08-27T10:51:56.417Z,99484.79
2022-08-27T10:53:02.360Z,99482.73
2022-08-27T10:54:04.559Z,99484.61
2022-08-27T10:55:07.179Z,99487.95
2022-08-27T10:56:09.528Z,99491.30
2022-08-27T10:57:28.825Z,99487.90
2022-08-27T10:58:20.833Z,99491.86
2022-08-27T10:59:24.582Z,99491.91
2022-08-27T11:00:30.773Z,99493.45
2022-08-27T11:01:33.037Z,99489.44
2022-08-27T11:02:35.663Z,99485.14
2022-08-27T11:03:39.696Z,99483.86
2022-08-27T11:04:41.373Z,99486.80
2022-08-27T11:05:44.778Z,99492.17
2022-08-27T11:06:47.359Z,99491.91
2022-08-27T11:07:52.480Z,99489.78
2022-08-27T11:08:54.671Z,99490.81
2022-08-27T11:09:57.375Z,99490.30
2022-08-27T11:11:07.607Z,99486.52
2022-08-27T11:12:17.620Z,99485.31
2022-08-27T11:13:04.512Z,99488.23
2022-08-27T11:14:08.051Z,99492.61
2022-08-27T11:15:12.972Z,99492.94
2022-08-27T11:16:12.929Z,99486.94
2022-08-27T11:17:17.049Z,99486.68
2022-08-27T11:18:19.313Z,99487.20
2022-08-27T11:19:21.830Z,99487.36
2022-08-27T11:20:24.287Z,99490.06
2022-08-27T11:21:28.598Z,99488.81
2022-08-27T11:22:31.954Z,99493.39
2022-08-27T11:23:34.452Z,99489.30
2022-08-27T11:24:36.791Z,99489.82
2022-08-27T11:25:41.002Z,99491.77
2022-08-27T11:26:43.285Z,99489.81
2022-08-27T11:27:45.593Z,99490.13
2022-08-27T11:28:48.152Z,99490.23
2022-08-27T11:29:52.192Z,99490.63
2022-08-27T11:30:54.521Z,99492.71
2022-08-27T11:31:58.079Z,99498.26
2022-08-27T11:33:02.002Z,99493.03
2022-08-27T11:34:04.283Z,99484.72
2022-08-27T11:35:06.740Z,99487.38
2022-08-27T11:36:10.263Z,99488.67
2022-08-27T11:37:12.714Z,99487.05
2022-08-27T11:38:15.139Z,99481.31
2022-08-27T11:39:17.496Z,99477.19
2022-08-27T11:40:20.054Z,99485.41
2022-08-27T11:41:22.432Z,99483.78
2022-08-27T11:42:24.934Z,99483.19
2022-08-27T11:43:27.431Z,99487.38
2022-08-27T11:44:30.832Z,99483.09
2022-08-27T11:45:33.074Z,99489.45
2022-08-27T11:46:35.732Z,99490.64
2022-08-27T11:47:38.892Z,99491.08
2022-08-27T11:48:40.669Z,99495.81
2022-08-27T11:49:43.139Z,99498.53
2022-08-27T11:50:45.692Z,99497.09
2022-08-27T11:51:48.191Z,99499.66
2022-08-27T11:52:50.661Z,99498.59
2022-08-27T11:53:53.184Z,99499.88
2022-08-27T11:54:56.868Z,99494.39
2022-08-27T11:55:59.221Z,99496.02
2022-08-27T11:57:03.192Z,99490.10
2022-08-27T11:58:06.660Z,99491.99
2022-08-27T11:59:08.976Z,99487.20
2022-08-27T12:00:11.429Z,99483.02
2022-08-27T12:01:13.808Z,99483.25
2022-08-27T12:02:16.263Z,99484.30
2022-08-27T12:03:18.735Z,99483.34
2022-08-27T12:04:22.860Z,99485.51
2022-08-27T12:05:26.761Z,99481.03
2022-08-27T12:06:29.215Z,99487.80
2022-08-27T12:07:35.852Z,99481.81
2022-08-27T12:08:38.014Z,99489.35
2022-08-27T12:09:42.236Z,99480.61
2022-08-27T12:10:46.143Z,99495.17
2022-08-27T12:11:52.376Z,99484.81
2022-08-27T12:21:20.361Z,99484.16
2022-08-27T12:22:22.813Z,99478.58
2022-08-27T12:23:25.173Z,99480.77
2022-08-27T12:24:27.758Z,99481.41
2022-08-27T12:25:30.255Z,99479.98
2022-08-27T12:26:32.743Z,99480.39
2022-08-27T12:27:37.825Z,99477.78
2022-08-27T12:28:42.487Z,99479.00
2022-08-27T12:29:44.639Z,99480.19
2022-08-27T12:30:47.079Z,99478.05
2022-08-27T12:31:50.859Z,99475.66
2022-08-27T12:32:54.215Z,99475.77
2022-08-27T12:33:58.274Z,99473.41
2022-08-27T12:35:00.620Z,99474.41
2022-08-27T12:36:03.021Z,99465.96
2022-08-27T12:37:05.634Z,99467.88
2022-08-27T12:38:08.273Z,99467.56
2022-08-27T12:39:13.092Z,99470.80
2022-08-27T12:40:15.315Z,99465.66
2022-08-27T12:41:19.586Z,99467.11
2022-08-27T12:42:21.920Z,99464.50
2022-08-27T12:43:24.347Z,99462.78
2022-08-27T12:44:26.921Z,99462.28
2022-08-27T12:45:30.392Z,99459.66
2022-08-27T12:46:32.904Z,99454.28
2022-08-27T12:56:04.740Z,99451.50
2022-08-27T12:57:10.851Z,99448.84
2022-08-27T12:58:15.601Z,99448.39
2022-08-27T12:59:16.467Z,99448.68
2022-08-27T13:00:18.795Z,99452.72
2022-08-27T13:01:22.904Z,99448.39
2022-08-27T13:02:26.693Z,99450.33
2022-08-27T13:03:29.057Z,99451.16
2022-08-27T13:04:31.511Z,99455.08
2022-08-27T13:05:35.614Z,99455.69
2022-08-27T13:06:41.808Z,99450.48
2022-08-27T13:07:45.720Z,99452.47
2022-08-27T13:08:50.497Z,99454.66
2022-08-27T13:09:56.888Z,99448.29
2022-08-27T13:10:55.549Z,99450.75
2022-08-27T13:11:57.995Z,99450.14
2022-08-27T13:13:00.460Z,99452.50
2022-08-27T13:14:04.099Z,99451.87
2022-08-27T13:15:06.445Z,99445.80
2022-08-27T13:16:10.609Z,99450.01
2022-08-27T13:17:12.870Z,99444.59
2022-08-27T13:18:15.508Z,99445.74
2022-08-27T13:19:19.501Z,99446.38
2022-08-27T13:20:22.189Z,99445.33
2022-08-27T13:21:26.101Z,99444.09
2022-08-27T13:22:28.568Z,99447.11
2022-08-27T13:23:31.945Z,99447.91
2022-08-27T13:24:34.470Z,99451.20
2022-08-27T13:25:37.932Z,99446.16
2022-08-27T13:26:40.347Z,99446.76
2022-08-27T13:27:42.711Z,99449.25
2022-08-27T13:28:45.326Z,99449.20
2022-08-27T13:29:47.709Z,99450.00
2022-08-27T13:30:52.060Z,99447.19
2022-08-27T13:31:55.965Z,99445.64
2022-08-27T13:32:58.363Z,99445.47
2022-08-27T13:34:00.930Z,99446.95
2022-08-27T13:35:03.169Z,99450.11
2022-08-27T13:36:05.653Z,99449.77
2022-08-27T13:37:08.156Z,99448.30
2022-08-27T13:38:10.919Z,99445.06
2022-08-27T13:39:14.862Z,99440.80
2022-08-27T13:40:17.255Z,99443.77
2022-08-27T13:41:19.695Z,99440.83
2022-08-27T13:42:22.153Z,99437.56
2022-08-27T13:43:24.676Z,99439.00
2022-08-27T13:44:28.698Z,99438.63
2022-08-27T13:45:32.168Z,99439.69
2022-08-27T13:46:34.545Z,99436.25
2022-08-27T13:47:38.839Z,99436.05
2022-08-27T13:48:41.223Z,99438.05
2022-08-27T13:49:46.288Z,99436.84
2022-08-27T13:50:51.200Z,99434.18
2022-08-27T13:51:55.071Z,99432.72
2022-08-27T13:52:57.485Z,99431.95
2022-08-27T13:54:01.591Z,99435.30
2022-08-27T13:55:03.883Z,99432.92
2022-08-27T13:56:06.339Z,99431.92
2022-08-27T13:57:08.920Z,99430.66
2022-08-27T13:58:12.968Z,99431.78
2022-08-27T13:59:15.317Z,99429.23
2022-08-27T14:00:17.818Z,99431.41
2022-08-27T14:01:21.951Z,99431.27
2022-08-27T14:02:24.553Z,99429.88
2022-08-27T14:03:26.909Z,99432.84
2022-08-27T14:04:29.454Z,99434.21
2022-08-27T14:05:33.549Z,99432.81
2022-08-27T14:06:37.516Z,99436.07
2022-08-27T14:07:39.910Z,99431.69
2022-08-27T14:08:44.004Z,99433.48
2022-08-27T14:09:54.298Z,99439.56
2022-08-27T14:10:50.259Z,99433.93
2022-08-27T14:11:52.735Z,99431.98
2022-08-27T14:12:55.226Z,99430.20
2022-08-27T14:13:57.702Z,99434.84
2022-08-27T14:15:00.227Z,99430.83
2022-08-27T14:16:02.773Z,99434.95
2022-08-27T14:17:05.180Z,99432.56
2022-08-27T14:18:09.323Z,99432.87
2022-08-27T14:19:11.625Z,99436.05
2022-08-27T14:20:14.127Z,99440.41
2022-08-27T14:21:16.659Z,99438.44
2022-08-27T14:22:20.792Z,99441.02
2022-08-27T14:23:24.766Z,99441.11
2022-08-27T14:24:27.029Z,99444.11
2022-08-27T14:25:31.203Z,99445.58
2022-08-27T14:26:33.607Z,99442.97
2022-08-27T14:27:36.110Z,99446.67
2022-08-27T14:28:38.594Z,99453.44
2022-08-27T14:29:42.706Z,99448.45
2022-08-27T14:30:46.680Z,99444.45
2022-08-27T14:31:50.728Z,99443.75
2022-08-27T14:32:55.635Z,99441.15
2022-08-27T14:33:56.999Z,99440.58
2022-08-27T14:34:59.513Z,99436.80
2022-08-27T14:36:01.973Z,99443.59
2022-08-27T14:37:04.424Z,99442.88
2022-08-27T14:38:08.566Z,99445.86
2022-08-27T14:39:10.989Z,99443.73
2022-08-27T14:40:13.545Z,99441.85
2022-08-27T14:41:15.981Z,99441.25
2022-08-27T14:42:18.472Z,99446.84
2022-08-27T14:43:20.941Z,99445.41
2022-08-27T14:44:23.397Z,99443.05
2022-08-27T14:45:25.885Z,99447.52
2022-08-27T14:46:28.508Z,99446.64
2022-08-27T14:47:33.256Z,99445.41
2022-08-27T14:48:33.451Z,99446.73
2022-08-27T14:49:37.590Z,99448.85
2022-08-27T14:50:40.080Z,99447.97
2022-08-27T14:51:44.152Z,99445.02
2022-08-27T14:52:48.117Z,99448.36
2022-08-27T14:53:50.490Z,99448.59
2022-08-27T14:54:52.960Z,99448.97
2022-08-27T14:55:55.532Z,99451.63
2022-08-27T14:56:59.617Z,99452.61
2022-08-27T14:58:02.942Z,99458.73
2022-08-27T14:59:05.545Z,99456.52
2022-08-27T15:00:09.016Z,99452.17
2022-08-27T15:01:12.746Z,99453.89
2022-08-27T15:02:15.062Z,99453.31
2022-08-27T15:03:17.528Z,99455.98
2022-08-27T15:04:20.040Z,99455.14
2022-08-27T15:05:24.868Z,99454.77
2022-08-27T15:06:26.665Z,99461.47
2022-08-27T15:07:30.652Z,99452.11
2022-08-27T15:08:34.613Z,99452.20
2022-08-27T15:09:38.592Z,99450.91
2022-08-27T15:10:40.975Z,99453.91
2022-08-27T15:11:45.074Z,99449.67
2022-08-27T15:12:47.464Z,99456.58
2022-08-27T15:13:51.565Z,99453.97
2022-08-27T15:14:55.550Z,99457.36
2022-08-27T15:15:57.961Z,99453.52
2022-08-27T15:17:02.023Z,99460.75
2022-08-27T15:18:04.461Z,99455.80
2022-08-27T15:19:06.881Z,99460.77
2022-08-27T15:20:09.374Z,99452.20
2022-08-27T15:21:13.572Z,99454.27
2022-08-27T15:22:16.881Z,99456.95
2022-08-27T15:23:18.432Z,99453.97
2022-08-27T15:24:20.918Z,99452.88
2022-08-27T15:25:23.438Z,99451.01
2022-08-27T15:26:25.965Z,99446.70
2022-08-27T15:27:32.062Z,99451.55
2022-08-27T15:28:33.926Z,99451.02
2022-08-27T15:29:36.313Z,99451.71
2022-08-27T15:30:40.368Z,99448.45
2022-08-27T15:31:42.910Z,99449.48
2022-08-27T15:32:45.244Z,99453.77
2022-08-27T15:33:47.712Z,99451.63
2022-08-27T15:34:50.247Z,99452.26
2022-08-27T15:35:54.364Z,99452.77
2022-08-27T15:36:56.774Z,99450.80
2022-08-27T15:37:59.234Z,99450.77
2022-08-27T15:39:02.766Z,99449.91
2022-08-27T15:40:06.829Z,99454.13
2022-08-27T15:41:09.263Z,99453.00
2022-08-27T15:42:11.915Z,99450.45
2022-08-27T15:43:16.060Z,99450.53
2022-08-27T15:44:18.452Z,99449.67
2022-08-27T15:45:25.762Z,99450.83
2022-08-27T15:46:24.979Z,99448.73
2022-08-27T15:47:27.444Z,99447.78
2022-08-27T15:48:29.934Z,99447.38
2022-08-27T15:49:32.436Z,99440.34
2022-08-27T15:50:34.916Z,99445.84
2022-08-27T15:51:37.429Z,99441.95
2022-08-27T15:52:40.587Z,99444.49
2022-08-27T15:53:42.411Z,99443.13
2022-08-27T15:54:46.499Z,99441.41
2022-08-27T15:55:48.895Z,99438.02
2022-08-27T15:56:52.424Z,99438.94
2022-08-27T15:57:54.921Z,99438.94
2022-08-27T15:58:58.992Z,99442.09
2022-08-27T16:00:01.335Z,99435.48
2022-08-27T16:01:03.824Z,99436.34
2022-08-27T16:02:06.273Z,99435.99
2022-08-27T16:03:10.404Z,99439.48
2022-08-27T16:04:14.335Z,99435.27
2022-08-27T16:05:22.467Z,99437.59
2022-08-27T16:06:26.180Z,99438.48
2022-08-27T16:07:28.506Z,99438.27
2022-08-27T16:08:31.061Z,99435.13
2022-08-27T16:09:35.148Z,99438.73
2022-08-27T16:10:37.482Z,99436.45
2022-08-27T16:11:41.608Z,99437.25
2022-08-27T16:12:43.952Z,99440.34
2022-08-27T16:13:46.450Z,99440.63
2022-08-27T16:14:48.973Z,99439.52
2022-08-27T16:15:51.480Z,99441.20
2022-08-27T16:16:53.937Z,99435.33
2022-08-27T16:17:58.054Z,99439.73
2022-08-27T16:19:00.396Z,99441.68
2022-08-27T16:20:02.892Z,99441.45
2022-08-27T16:21:07.019Z,99446.28
2022-08-27T16:22:11.036Z,99445.44
2022-08-27T16:23:14.943Z,99446.49
2022-08-27T16:24:18.328Z,99442.14
2022-08-27T16:25:20.756Z,99441.99
2022-08-27T16:26:23.206Z,99444.22
2022-08-27T16:27:27.295Z,99441.87
2022-08-27T16:28:29.691Z,99445.29
2022-08-27T16:29:32.186Z,99448.84
2022-08-27T16:30:34.681Z,99442.64
2022-08-27T16:31:37.256Z,99444.09
2022-08-27T16:32:41.237Z,99443.59
2022-08-27T16:33:45.250Z,99447.58
2022-08-27T16:34:55.544Z,99445.33
2022-08-27T16:35:51.636Z,99447.66
2022-08-27T16:36:55.585Z,99446.39
2022-08-27T16:37:59.508Z,99443.89
2022-08-27T16:39:03.540Z,99444.92
2022-08-27T16:40:05.918Z,99441.91
2022-08-27T16:41:08.407Z,99446.04
2022-08-27T16:42:10.873Z,99443.29
2022-08-27T16:43:13.378Z,99452.09
2022-08-27T16:44:15.880Z,99445.98
2022-08-27T16:45:18.388Z,99448.06
2022-08-27T16:46:20.954Z,99446.94
2022-08-27T16:47:23.388Z,99450.64
2022-08-27T16:48:25.922Z,99446.80
2022-08-27T16:49:28.416Z,99445.17
2022-08-27T16:50:30.869Z,99450.14
2022-08-27T16:51:34.721Z,99444.93
2022-08-27T16:52:35.886Z,99444.41
2022-08-27T16:53:38.388Z,99447.52
2022-08-27T16:54:40.943Z,99447.34
2022-08-27T16:55:43.421Z,99447.70
2022-08-27T16:56:46.172Z,99450.86
2022-08-27T16:57:50.109Z,99449.89
2022-08-27T16:58:52.538Z,99454.11
2022-08-27T16:59:56.577Z,99452.30
2022-08-27T17:00:58.987Z,99450.07
2022-08-27T17:02:03.021Z,99447.86
2022-08-27T17:03:06.987Z,99445.64
2022-08-27T17:04:14.759Z,99445.66
2022-08-27T17:06:16.034Z,99449.19
2022-08-27T17:07:18.406Z,99449.03
2022-08-27T17:08:20.871Z,99451.77
2022-08-27T17:09:24.996Z,99446.64
2022-08-27T17:10:27.359Z,99450.17
2022-08-27T17:11:31.443Z,99451.45
2022-08-27T17:12:35.382Z,99449.20
2022-08-27T17:13:37.783Z,99452.63
2022-08-27T17:14:41.843Z,99451.77
2022-08-27T17:15:44.322Z,99457.26
2022-08-27T17:16:46.670Z,99455.64
2022-08-27T17:17:49.127Z,99451.63
2022-08-27T17:18:51.645Z,99451.86
2022-08-27T17:19:54.173Z,99458.14
2022-08-27T17:20:56.678Z,99457.11
2022-08-27T17:21:59.176Z,99455.91
2022-08-27T17:23:01.681Z,99458.84
2022-08-27T17:24:04.154Z,99454.55
2022-08-27T17:25:08.273Z,99454.22
2022-08-27T17:26:10.748Z,99454.83
2022-08-27T17:27:13.239Z,99454.03
2022-08-27T17:28:17.330Z,99454.22
2022-08-27T17:29:19.790Z,99456.77
2022-08-27T17:30:23.877Z,99455.22
2022-08-27T17:31:28.112Z,99454.55
2022-08-27T17:32:28.701Z,99457.22
2022-08-27T17:33:31.232Z,99459.42
2022-08-27T17:34:35.381Z,99457.02
2022-08-27T17:35:37.940Z,99461.73
2022-08-27T17:36:40.372Z,99459.02
2022-08-27T17:37:42.814Z,99461.39
2022-08-27T17:38:45.313Z,99457.13
2022-08-27T17:39:47.794Z,99457.11
2022-08-27T17:40:52.183Z,99454.45
2022-08-27T17:41:54.461Z,99451.73
2022-08-27T17:43:01.742Z,99457.73
2022-08-27T17:44:03.856Z,99458.94
2022-08-27T17:45:06.385Z,99457.97
2022-08-27T17:46:10.544Z,99462.00
2022-08-27T17:47:14.443Z,99460.86
2022-08-27T17:48:18.079Z,99458.28
2022-08-27T17:49:19.260Z,99466.25
2022-08-27T17:50:21.767Z,99462.55
2022-08-27T17:51:24.258Z,99469.07
2022-08-27T17:52:28.391Z,99471.95
2022-08-27T17:53:30.769Z,99471.70
2022-08-27T17:54:33.235Z,99473.23
2022-08-27T17:55:37.337Z,99473.66
2022-08-27T17:56:41.279Z,99470.31
2022-08-27T17:57:45.297Z,99479.13
2022-08-27T17:58:47.696Z,99472.01
2022-08-27T17:59:50.221Z,99479.34
2022-08-27T18:00:54.363Z,99481.73
2022-08-27T18:01:58.316Z,99479.66
2022-08-27T18:03:02.258Z,99478.28
2022-08-27T18:04:04.647Z,99482.72
2022-08-27T18:05:07.223Z,99483.84
2022-08-27T18:06:09.563Z,99480.55
2022-08-27T18:07:12.003Z,99483.47
2022-08-27T18:08:16.107Z,99484.85
2022-08-27T18:09:18.400Z,99486.80
2022-08-27T18:18:50.537Z,99496.91
2022-08-27T18:19:54.632Z,99499.36
2022-08-27T18:29:26.418Z,99500.24
2022-08-27T18:39:00.470Z,99510.45
2022-08-27T18:48:35.360Z,99531.06
2022-08-27T18:58:08.441Z,99536.42
2022-08-27T19:07:44.882Z,99542.17
2022-08-27T19:17:17.694Z,99545.95
2022-08-27T19:26:51.990Z,99557.78
2022-08-27T19:36:27.501Z,99569.03
2022-08-27T19:45:57.914Z,99576.53
2022-08-27T19:55:32.625Z,99589.47
2022-08-27T20:05:17.285Z,99582.58
2022-08-27T20:14:38.109Z,99593.01
2022-08-27T20:24:12.555Z,99595.70
2022-08-27T20:33:41.462Z,99602.07
2022-08-27T20:43:14.296Z,99613.50
2022-08-27T20:52:44.467Z,99622.28
2022-08-27T21:02:16.258Z,99633.59
2022-08-27T21:11:51.654Z,99637.66
2022-08-27T21:21:24.426Z,99628.07
2022-08-27T21:30:56.869Z,99631.03
2022-08-27T21:40:30.113Z,99632.70
2022-08-27T21:50:01.868Z,99627.47
2022-08-27T21:59:33.975Z,99628.09
2022-08-27T22:09:06.749Z,99629.59
2022-08-27T22:10:10.242Z,99632.78
2022-08-27T22:19:43.159Z,99625.44
2022-08-27T22:29:15.811Z,99611.80
2022-08-27T22:38:45.969Z,99616.17
2022-08-27T22:48:16.005Z,99624.56
2022-08-27T22:57:48.177Z,99617.59
2022-08-27T23:07:22.016Z,99612.76
2022-08-27T23:16:52.615Z,99609.73
2022-08-27T23:26:25.903Z,99595.53
2022-08-27T23:35:56.304Z,99604.01
2022-08-27T23:45:29.477Z,99597.75
2022-08-27T23:55:03.508Z,99605.00
